<?xml version="1.0" encoding="UTF-8" ?>
<gpx version="1.1" xmlns:xsi="http://www.w3.org/2001/XMLSchema-instance" 
    xmlns="http://www.topografix.com/GPX/1/1" 
    xsi:schemaLocation="http://www.topografix.com/GPX/1/1 http://www.topografix.com/GPX/1/1/gpx.xsd" 
    creator="Openrunner - https://www.openrunner.com" >	<trk>
						<name>2425331-B-GR13-132 etape 2</name>
						<trkseg>
					<trkpt lat="48.051410" lon="2.936080">
						<ele>117</ele>
						<time>2020-03-18T16:55:14Z</time>
					</trkpt>
					<trkpt lat="48.052180" lon="2.936560">
						<ele>112</ele>
						<time>2020-03-18T16:57:05Z</time>
					</trkpt>
					<trkpt lat="48.052920" lon="2.936460">
						<ele>112</ele>
						<time>2020-03-18T16:58:44Z</time>
					</trkpt>
					<trkpt lat="48.053830" lon="2.936460">
						<ele>113</ele>
						<time>2020-03-18T17:00:46Z</time>
					</trkpt>
					<trkpt lat="48.054110" lon="2.936630">
						<ele>113</ele>
						<time>2020-03-18T17:01:26Z</time>
					</trkpt>
					<trkpt lat="48.053870" lon="2.938690">
						<ele>113</ele>
						<time>2020-03-18T17:04:33Z</time>
					</trkpt>
					<trkpt lat="48.053830" lon="2.938710">
						<ele>113</ele>
						<time>2020-03-18T17:04:38Z</time>
					</trkpt>
					<trkpt lat="48.053850" lon="2.939600">
						<ele>113</ele>
						<time>2020-03-18T17:05:58Z</time>
					</trkpt>
					<trkpt lat="48.054050" lon="2.940850">
						<ele>113</ele>
						<time>2020-03-18T17:07:52Z</time>
					</trkpt>
					<trkpt lat="48.054030" lon="2.941200">
						<ele>113</ele>
						<time>2020-03-18T17:08:24Z</time>
					</trkpt>
					<trkpt lat="48.053880" lon="2.941500">
						<ele>114</ele>
						<time>2020-03-18T17:08:57Z</time>
					</trkpt>
					<trkpt lat="48.053760" lon="2.942170">
						<ele>115</ele>
						<time>2020-03-18T17:09:59Z</time>
					</trkpt>
					<trkpt lat="48.053900" lon="2.943230">
						<ele>117</ele>
						<time>2020-03-18T17:11:35Z</time>
					</trkpt>
					<trkpt lat="48.054040" lon="2.943650">
						<ele>117</ele>
						<time>2020-03-18T17:12:17Z</time>
					</trkpt>
					<trkpt lat="48.054010" lon="2.944200">
						<ele>117</ele>
						<time>2020-03-18T17:13:07Z</time>
					</trkpt>
					<trkpt lat="48.053910" lon="2.944550">
						<ele>118</ele>
						<time>2020-03-18T17:13:41Z</time>
					</trkpt>
					<trkpt lat="48.053770" lon="2.944800">
						<ele>118</ele>
						<time>2020-03-18T17:14:10Z</time>
					</trkpt>
					<trkpt lat="48.053170" lon="2.945320">
						<ele>115</ele>
						<time>2020-03-18T17:15:42Z</time>
					</trkpt>
					<trkpt lat="48.053000" lon="2.945680">
						<ele>115</ele>
						<time>2020-03-18T17:16:21Z</time>
					</trkpt>
					<trkpt lat="48.052770" lon="2.946480">
						<ele>114</ele>
						<time>2020-03-18T17:17:39Z</time>
					</trkpt>
					<trkpt lat="48.052810" lon="2.946670">
						<ele>114</ele>
						<time>2020-03-18T17:17:57Z</time>
					</trkpt>
					<trkpt lat="48.054010" lon="2.947730">
						<ele>126</ele>
						<time>2020-03-18T17:21:03Z</time>
					</trkpt>
					<trkpt lat="48.053940" lon="2.948570">
						<ele>127</ele>
						<time>2020-03-18T17:22:18Z</time>
					</trkpt>
					<trkpt lat="48.053570" lon="2.949640">
						<ele>127</ele>
						<time>2020-03-18T17:24:06Z</time>
					</trkpt>
					<trkpt lat="48.052930" lon="2.951030">
						<ele>126</ele>
						<time>2020-03-18T17:26:36Z</time>
					</trkpt>
					<trkpt lat="48.053060" lon="2.951250">
						<ele>128</ele>
						<time>2020-03-18T17:27:03Z</time>
					</trkpt>
					<trkpt lat="48.052980" lon="2.951930">
						<ele>129</ele>
						<time>2020-03-18T17:28:04Z</time>
					</trkpt>
					<trkpt lat="48.052790" lon="2.952260">
						<ele>129</ele>
						<time>2020-03-18T17:28:43Z</time>
					</trkpt>
					<trkpt lat="48.052440" lon="2.953370">
						<ele>131</ele>
						<time>2020-03-18T17:30:33Z</time>
					</trkpt>
					<trkpt lat="48.052320" lon="2.954000">
						<ele>132</ele>
						<time>2020-03-18T17:31:31Z</time>
					</trkpt>
					<trkpt lat="48.052440" lon="2.955060">
						<ele>138</ele>
						<time>2020-03-18T17:33:07Z</time>
					</trkpt>
					<trkpt lat="48.052430" lon="2.955400">
						<ele>138</ele>
						<time>2020-03-18T17:33:37Z</time>
					</trkpt>
					<trkpt lat="48.052550" lon="2.955760">
						<ele>139</ele>
						<time>2020-03-18T17:34:13Z</time>
					</trkpt>
					<trkpt lat="48.052880" lon="2.956370">
						<ele>139</ele>
						<time>2020-03-18T17:35:23Z</time>
					</trkpt>
					<trkpt lat="48.053190" lon="2.957180">
						<ele>141</ele>
						<time>2020-03-18T17:36:46Z</time>
					</trkpt>
					<trkpt lat="48.053240" lon="2.957780">
						<ele>140</ele>
						<time>2020-03-18T17:37:40Z</time>
					</trkpt>
					<trkpt lat="48.052850" lon="2.958230">
						<ele>132</ele>
						<time>2020-03-18T17:38:46Z</time>
					</trkpt>
					<trkpt lat="48.052860" lon="2.958610">
						<ele>130</ele>
						<time>2020-03-18T17:39:20Z</time>
					</trkpt>
					<trkpt lat="48.053010" lon="2.959190">
						<ele>129</ele>
						<time>2020-03-18T17:40:15Z</time>
					</trkpt>
					<trkpt lat="48.053000" lon="2.959590">
						<ele>127</ele>
						<time>2020-03-18T17:40:51Z</time>
					</trkpt>
					<trkpt lat="48.052910" lon="2.959770">
						<ele>125</ele>
						<time>2020-03-18T17:41:11Z</time>
					</trkpt>
					<trkpt lat="48.052700" lon="2.959980">
						<ele>121</ele>
						<time>2020-03-18T17:41:45Z</time>
					</trkpt>
					<trkpt lat="48.051840" lon="2.961170">
						<ele>120</ele>
						<time>2020-03-18T17:44:21Z</time>
					</trkpt>
					<trkpt lat="48.051960" lon="2.961410">
						<ele>120</ele>
						<time>2020-03-18T17:44:48Z</time>
					</trkpt>
					<trkpt lat="48.051870" lon="2.961190">
						<ele>120</ele>
						<time>2020-03-18T17:45:11Z</time>
					</trkpt>
					<trkpt lat="48.051070" lon="2.962310">
						<ele>119</ele>
						<time>2020-03-18T17:47:37Z</time>
					</trkpt>
					<trkpt lat="48.050940" lon="2.962570">
						<ele>119</ele>
						<time>2020-03-18T17:48:06Z</time>
					</trkpt>
					<trkpt lat="48.050990" lon="2.963800">
						<ele>119</ele>
						<time>2020-03-18T17:49:56Z</time>
					</trkpt>
					<trkpt lat="48.050870" lon="2.964670">
						<ele>119</ele>
						<time>2020-03-18T17:51:15Z</time>
					</trkpt>
					<trkpt lat="48.050740" lon="2.967950">
						<ele>118</ele>
						<time>2020-03-18T17:56:08Z</time>
					</trkpt>
					<trkpt lat="48.050660" lon="2.968800">
						<ele>118</ele>
						<time>2020-03-18T17:57:25Z</time>
					</trkpt>
					<trkpt lat="48.050070" lon="2.971140">
						<ele>125</ele>
						<time>2020-03-18T18:01:08Z</time>
					</trkpt>
					<trkpt lat="48.049610" lon="2.972270">
						<ele>129</ele>
						<time>2020-03-18T18:03:06Z</time>
					</trkpt>
					<trkpt lat="48.049170" lon="2.974210">
						<ele>135</ele>
						<time>2020-03-18T18:06:09Z</time>
					</trkpt>
					<trkpt lat="48.049180" lon="2.974540">
						<ele>137</ele>
						<time>2020-03-18T18:06:38Z</time>
					</trkpt>
					<trkpt lat="48.049630" lon="2.976000">
						<ele>146</ele>
						<time>2020-03-18T18:09:02Z</time>
					</trkpt>
					<trkpt lat="48.049650" lon="2.976940">
						<ele>148</ele>
						<time>2020-03-18T18:10:26Z</time>
					</trkpt>
					<trkpt lat="48.049890" lon="2.980560">
						<ele>148</ele>
						<time>2020-03-18T18:15:50Z</time>
					</trkpt>
					<trkpt lat="48.049950" lon="2.983230">
						<ele>150</ele>
						<time>2020-03-18T18:19:48Z</time>
					</trkpt>
					<trkpt lat="48.049920" lon="2.984640">
						<ele>149</ele>
						<time>2020-03-18T18:21:54Z</time>
					</trkpt>
					<trkpt lat="48.049860" lon="2.984860">
						<ele>149</ele>
						<time>2020-03-18T18:22:15Z</time>
					</trkpt>
					<trkpt lat="48.049820" lon="2.987460">
						<ele>140</ele>
						<time>2020-03-18T18:26:07Z</time>
					</trkpt>
					<trkpt lat="48.049880" lon="2.988120">
						<ele>137</ele>
						<time>2020-03-18T18:27:07Z</time>
					</trkpt>
					<trkpt lat="48.049800" lon="2.988910">
						<ele>135</ele>
						<time>2020-03-18T18:28:18Z</time>
					</trkpt>
					<trkpt lat="48.049670" lon="2.989320">
						<ele>135</ele>
						<time>2020-03-18T18:28:59Z</time>
					</trkpt>
					<trkpt lat="48.049640" lon="2.989610">
						<ele>133</ele>
						<time>2020-03-18T18:29:25Z</time>
					</trkpt>
					<trkpt lat="48.049740" lon="2.991460">
						<ele>131</ele>
						<time>2020-03-18T18:32:10Z</time>
					</trkpt>
					<trkpt lat="48.049760" lon="2.993660">
						<ele>127</ele>
						<time>2020-03-18T18:35:27Z</time>
					</trkpt>
					<trkpt lat="48.049210" lon="2.997500">
						<ele>129</ele>
						<time>2020-03-18T18:41:17Z</time>
					</trkpt>
					<trkpt lat="48.049350" lon="2.998240">
						<ele>129</ele>
						<time>2020-03-18T18:42:26Z</time>
					</trkpt>
					<trkpt lat="48.049480" lon="3.000430">
						<ele>132</ele>
						<time>2020-03-18T18:45:42Z</time>
					</trkpt>
					<trkpt lat="48.049350" lon="3.000910">
						<ele>133</ele>
						<time>2020-03-18T18:46:28Z</time>
					</trkpt>
					<trkpt lat="48.049250" lon="3.001600">
						<ele>133</ele>
						<time>2020-03-18T18:47:31Z</time>
					</trkpt>
					<trkpt lat="48.049190" lon="3.001620">
						<ele>133</ele>
						<time>2020-03-18T18:47:39Z</time>
					</trkpt>
					<trkpt lat="48.049130" lon="3.002690">
						<ele>133</ele>
						<time>2020-03-18T18:49:15Z</time>
					</trkpt>
					<trkpt lat="48.049760" lon="3.004390">
						<ele>135</ele>
						<time>2020-03-18T18:52:08Z</time>
					</trkpt>
					<trkpt lat="48.050550" lon="3.005540">
						<ele>136</ele>
						<time>2020-03-18T18:54:35Z</time>
					</trkpt>
					<trkpt lat="48.050610" lon="3.005940">
						<ele>136</ele>
						<time>2020-03-18T18:55:12Z</time>
					</trkpt>
					<trkpt lat="48.050520" lon="3.006320">
						<ele>137</ele>
						<time>2020-03-18T18:55:48Z</time>
					</trkpt>
					<trkpt lat="48.050190" lon="3.006880">
						<ele>142</ele>
						<time>2020-03-18T18:56:55Z</time>
					</trkpt>
					<trkpt lat="48.050280" lon="3.006830">
						<ele>141</ele>
						<time>2020-03-18T18:57:07Z</time>
					</trkpt>
					<trkpt lat="48.050640" lon="3.007360">
						<ele>138</ele>
						<time>2020-03-18T18:58:15Z</time>
					</trkpt>
					<trkpt lat="48.050660" lon="3.007710">
						<ele>137</ele>
						<time>2020-03-18T18:58:46Z</time>
					</trkpt>
					<trkpt lat="48.050300" lon="3.010090">
						<ele>139</ele>
						<time>2020-03-18T19:02:24Z</time>
					</trkpt>
					<trkpt lat="48.050320" lon="3.010350">
						<ele>139</ele>
						<time>2020-03-18T19:02:47Z</time>
					</trkpt>
					<trkpt lat="48.050210" lon="3.010640">
						<ele>141</ele>
						<time>2020-03-18T19:03:17Z</time>
					</trkpt>
					<trkpt lat="48.050110" lon="3.011240">
						<ele>142</ele>
						<time>2020-03-18T19:04:12Z</time>
					</trkpt>
					<trkpt lat="48.050070" lon="3.011940">
						<ele>140</ele>
						<time>2020-03-18T19:05:15Z</time>
					</trkpt>
					<trkpt lat="48.049780" lon="3.014130">
						<ele>140</ele>
						<time>2020-03-18T19:08:34Z</time>
					</trkpt>
					<trkpt lat="48.049870" lon="3.014310">
						<ele>138</ele>
						<time>2020-03-18T19:08:54Z</time>
					</trkpt>
					<trkpt lat="48.050530" lon="3.013820">
						<ele>133</ele>
						<time>2020-03-18T19:10:32Z</time>
					</trkpt>
					<trkpt lat="48.051900" lon="3.013840">
						<ele>137</ele>
						<time>2020-03-18T19:13:35Z</time>
					</trkpt>
					<trkpt lat="48.051950" lon="3.013940">
						<ele>138</ele>
						<time>2020-03-18T19:13:46Z</time>
					</trkpt>
					<trkpt lat="48.052150" lon="3.013910">
						<ele>139</ele>
						<time>2020-03-18T19:14:13Z</time>
					</trkpt>
					<trkpt lat="48.052190" lon="3.014130">
						<ele>140</ele>
						<time>2020-03-18T19:14:33Z</time>
					</trkpt>
					<trkpt lat="48.052090" lon="3.014740">
						<ele>142</ele>
						<time>2020-03-18T19:15:29Z</time>
					</trkpt>
					<trkpt lat="48.051980" lon="3.015060">
						<ele>142</ele>
						<time>2020-03-18T19:16:01Z</time>
					</trkpt>
					<trkpt lat="48.052000" lon="3.015130">
						<ele>142</ele>
						<time>2020-03-18T19:16:08Z</time>
					</trkpt>
					<trkpt lat="48.051910" lon="3.015190">
						<ele>141</ele>
						<time>2020-03-18T19:16:21Z</time>
					</trkpt>
					<trkpt lat="48.051590" lon="3.015850">
						<ele>137</ele>
						<time>2020-03-18T19:17:34Z</time>
					</trkpt>
					<trkpt lat="48.051350" lon="3.016590">
						<ele>138</ele>
						<time>2020-03-18T19:18:48Z</time>
					</trkpt>
					<trkpt lat="48.051280" lon="3.016340">
						<ele>137</ele>
						<time>2020-03-18T19:19:12Z</time>
					</trkpt>
					<trkpt lat="48.051330" lon="3.016670">
						<ele>138</ele>
						<time>2020-03-18T19:19:42Z</time>
					</trkpt>
					<trkpt lat="48.050990" lon="3.018030">
						<ele>140</ele>
						<time>2020-03-18T19:21:51Z</time>
					</trkpt>
					<trkpt lat="48.050980" lon="3.019060">
						<ele>141</ele>
						<time>2020-03-18T19:23:23Z</time>
					</trkpt>
					<trkpt lat="48.051130" lon="3.020450">
						<ele>139</ele>
						<time>2020-03-18T19:25:29Z</time>
					</trkpt>
					<trkpt lat="48.051270" lon="3.021090">
						<ele>139</ele>
						<time>2020-03-18T19:26:29Z</time>
					</trkpt>
					<trkpt lat="48.051480" lon="3.023730">
						<ele>138</ele>
						<time>2020-03-18T19:30:26Z</time>
					</trkpt>
					<trkpt lat="48.051480" lon="3.025170">
						<ele>137</ele>
						<time>2020-03-18T19:32:35Z</time>
					</trkpt>
					<trkpt lat="48.051520" lon="3.025550">
						<ele>137</ele>
						<time>2020-03-18T19:33:09Z</time>
					</trkpt>
					<trkpt lat="48.051080" lon="3.028590">
						<ele>139</ele>
						<time>2020-03-18T19:37:46Z</time>
					</trkpt>
					<trkpt lat="48.050900" lon="3.029250">
						<ele>139</ele>
						<time>2020-03-18T19:38:50Z</time>
					</trkpt>
					<trkpt lat="48.050580" lon="3.029960">
						<ele>136</ele>
						<time>2020-03-18T19:40:06Z</time>
					</trkpt>
					<trkpt lat="48.050430" lon="3.030490">
						<ele>137</ele>
						<time>2020-03-18T19:40:58Z</time>
					</trkpt>
					<trkpt lat="48.049790" lon="3.032070">
						<ele>138</ele>
						<time>2020-03-18T19:43:42Z</time>
					</trkpt>
					<trkpt lat="48.049760" lon="3.031980">
						<ele>137</ele>
						<time>2020-03-18T19:43:51Z</time>
					</trkpt>
					<trkpt lat="48.049790" lon="3.032110">
						<ele>138</ele>
						<time>2020-03-18T19:44:04Z</time>
					</trkpt>
					<trkpt lat="48.049540" lon="3.032400">
						<ele>138</ele>
						<time>2020-03-18T19:44:46Z</time>
					</trkpt>
					<trkpt lat="48.047880" lon="3.032510">
						<ele>137</ele>
						<time>2020-03-18T19:48:28Z</time>
					</trkpt>
					<trkpt lat="48.046870" lon="3.032910">
						<ele>144</ele>
						<time>2020-03-18T19:50:47Z</time>
					</trkpt>
					<trkpt lat="48.046530" lon="3.032960">
						<ele>147</ele>
						<time>2020-03-18T19:51:33Z</time>
					</trkpt>
					<trkpt lat="48.045590" lon="3.033280">
						<ele>160</ele>
						<time>2020-03-18T19:53:41Z</time>
					</trkpt>
					<trkpt lat="48.045330" lon="3.033460">
						<ele>163</ele>
						<time>2020-03-18T19:54:20Z</time>
					</trkpt>
					<trkpt lat="48.044950" lon="3.033920">
						<ele>168</ele>
						<time>2020-03-18T19:55:25Z</time>
					</trkpt>
					<trkpt lat="48.044760" lon="3.034320">
						<ele>168</ele>
						<time>2020-03-18T19:56:09Z</time>
					</trkpt>
					<trkpt lat="48.044350" lon="3.035860">
						<ele>165</ele>
						<time>2020-03-18T19:58:36Z</time>
					</trkpt>
					<trkpt lat="48.044090" lon="3.036590">
						<ele>165</ele>
						<time>2020-03-18T19:59:50Z</time>
					</trkpt>
					<trkpt lat="48.043950" lon="3.037210">
						<ele>165</ele>
						<time>2020-03-18T20:00:49Z</time>
					</trkpt>
					<trkpt lat="48.043860" lon="3.037250">
						<ele>165</ele>
						<time>2020-03-18T20:01:01Z</time>
					</trkpt>
					<trkpt lat="48.043660" lon="3.037910">
						<ele>162</ele>
						<time>2020-03-18T20:02:06Z</time>
					</trkpt>
					<trkpt lat="48.043670" lon="3.038070">
						<ele>162</ele>
						<time>2020-03-18T20:02:20Z</time>
					</trkpt>
					<trkpt lat="48.044060" lon="3.038780">
						<ele>164</ele>
						<time>2020-03-18T20:03:42Z</time>
					</trkpt>
					<trkpt lat="48.044120" lon="3.039070">
						<ele>163</ele>
						<time>2020-03-18T20:04:09Z</time>
					</trkpt>
					<trkpt lat="48.043540" lon="3.039670">
						<ele>167</ele>
						<time>2020-03-18T20:05:43Z</time>
					</trkpt>
					<trkpt lat="48.043610" lon="3.040120">
						<ele>169</ele>
						<time>2020-03-18T20:06:25Z</time>
					</trkpt>
					<trkpt lat="48.043400" lon="3.041880">
						<ele>165</ele>
						<time>2020-03-18T20:09:04Z</time>
					</trkpt>
					<trkpt lat="48.043450" lon="3.042220">
						<ele>164</ele>
						<time>2020-03-18T20:09:35Z</time>
					</trkpt>
					<trkpt lat="48.043640" lon="3.042580">
						<ele>164</ele>
						<time>2020-03-18T20:10:16Z</time>
					</trkpt>
					<trkpt lat="48.043760" lon="3.043110">
						<ele>165</ele>
						<time>2020-03-18T20:11:06Z</time>
					</trkpt>
					<trkpt lat="48.043760" lon="3.043640">
						<ele>165</ele>
						<time>2020-03-18T20:11:53Z</time>
					</trkpt>
					<trkpt lat="48.043920" lon="3.045440">
						<ele>164</ele>
						<time>2020-03-18T20:14:35Z</time>
					</trkpt>
					<trkpt lat="48.043650" lon="3.046890">
						<ele>159</ele>
						<time>2020-03-18T20:16:50Z</time>
					</trkpt>
					<trkpt lat="48.043400" lon="3.047620">
						<ele>154</ele>
						<time>2020-03-18T20:18:03Z</time>
					</trkpt>
					<trkpt lat="48.043350" lon="3.048110">
						<ele>153</ele>
						<time>2020-03-18T20:18:47Z</time>
					</trkpt>
					<trkpt lat="48.043360" lon="3.048840">
						<ele>151</ele>
						<time>2020-03-18T20:19:52Z</time>
					</trkpt>
					<trkpt lat="48.043250" lon="3.049730">
						<ele>148</ele>
						<time>2020-03-18T20:21:13Z</time>
					</trkpt>
					<trkpt lat="48.043360" lon="3.050580">
						<ele>145</ele>
						<time>2020-03-18T20:22:30Z</time>
					</trkpt>
					<trkpt lat="48.043510" lon="3.051030">
						<ele>146</ele>
						<time>2020-03-18T20:23:15Z</time>
					</trkpt>
					<trkpt lat="48.043520" lon="3.051390">
						<ele>145</ele>
						<time>2020-03-18T20:23:47Z</time>
					</trkpt>
					<trkpt lat="48.043360" lon="3.051740">
						<ele>144</ele>
						<time>2020-03-18T20:24:25Z</time>
					</trkpt>
					<trkpt lat="48.043300" lon="3.051750">
						<ele>144</ele>
						<time>2020-03-18T20:24:33Z</time>
					</trkpt>
					<trkpt lat="48.042940" lon="3.052320">
						<ele>143</ele>
						<time>2020-03-18T20:25:43Z</time>
					</trkpt>
					<trkpt lat="48.042660" lon="3.052470">
						<ele>142</ele>
						<time>2020-03-18T20:26:23Z</time>
					</trkpt>
					<trkpt lat="48.042940" lon="3.052600">
						<ele>143</ele>
						<time>2020-03-18T20:27:02Z</time>
					</trkpt>
					<trkpt lat="48.043060" lon="3.053380">
						<ele>145</ele>
						<time>2020-03-18T20:28:13Z</time>
					</trkpt>
					<trkpt lat="48.043030" lon="3.054680">
						<ele>146</ele>
						<time>2020-03-18T20:30:09Z</time>
					</trkpt>
					<trkpt lat="48.043180" lon="3.055520">
						<ele>147</ele>
						<time>2020-03-18T20:31:27Z</time>
					</trkpt>
					<trkpt lat="48.043160" lon="3.056620">
						<ele>146</ele>
						<time>2020-03-18T20:33:05Z</time>
					</trkpt>
					<trkpt lat="48.043370" lon="3.057150">
						<ele>146</ele>
						<time>2020-03-18T20:34:00Z</time>
					</trkpt>
					<trkpt lat="48.043730" lon="3.058770">
						<ele>146</ele>
						<time>2020-03-18T20:36:32Z</time>
					</trkpt>
					<trkpt lat="48.043700" lon="3.059030">
						<ele>145</ele>
						<time>2020-03-18T20:36:56Z</time>
					</trkpt>
					<trkpt lat="48.042590" lon="3.060340">
						<ele>146</ele>
						<time>2020-03-18T20:40:04Z</time>
					</trkpt>
					<trkpt lat="48.042590" lon="3.060410">
						<ele>146</ele>
						<time>2020-03-18T20:40:11Z</time>
					</trkpt>
					<trkpt lat="48.042630" lon="3.060320">
						<ele>145</ele>
						<time>2020-03-18T20:40:20Z</time>
					</trkpt>
					<trkpt lat="48.042480" lon="3.060410">
						<ele>146</ele>
						<time>2020-03-18T20:40:42Z</time>
					</trkpt>
					<trkpt lat="48.042370" lon="3.060030">
						<ele>148</ele>
						<time>2020-03-18T20:41:19Z</time>
					</trkpt>
					<trkpt lat="48.042170" lon="3.059660">
						<ele>150</ele>
						<time>2020-03-18T20:42:01Z</time>
					</trkpt>
					<trkpt lat="48.042020" lon="3.059210">
						<ele>151</ele>
						<time>2020-03-18T20:42:46Z</time>
					</trkpt>
					<trkpt lat="48.041320" lon="3.059340">
						<ele>160</ele>
						<time>2020-03-18T20:44:20Z</time>
					</trkpt>
					<trkpt lat="48.041040" lon="3.059460">
						<ele>162</ele>
						<time>2020-03-18T20:44:59Z</time>
					</trkpt>
					<trkpt lat="48.040910" lon="3.059110">
						<ele>164</ele>
						<time>2020-03-18T20:45:35Z</time>
					</trkpt>
					<trkpt lat="48.040990" lon="3.059630">
						<ele>163</ele>
						<time>2020-03-18T20:46:23Z</time>
					</trkpt>
					<trkpt lat="48.041140" lon="3.060090">
						<ele>161</ele>
						<time>2020-03-18T20:47:08Z</time>
					</trkpt>
					<trkpt lat="48.041170" lon="3.060400">
						<ele>160</ele>
						<time>2020-03-18T20:47:36Z</time>
					</trkpt>
					<trkpt lat="48.041100" lon="3.060530">
						<ele>161</ele>
						<time>2020-03-18T20:47:51Z</time>
					</trkpt>
					<trkpt lat="48.041090" lon="3.060810">
						<ele>161</ele>
						<time>2020-03-18T20:48:16Z</time>
					</trkpt>
					<trkpt lat="48.041140" lon="3.061010">
						<ele>160</ele>
						<time>2020-03-18T20:48:35Z</time>
					</trkpt>
					<trkpt lat="48.041120" lon="3.061220">
						<ele>161</ele>
						<time>2020-03-18T20:48:54Z</time>
					</trkpt>
					<trkpt lat="48.041230" lon="3.061600">
						<ele>160</ele>
						<time>2020-03-18T20:49:31Z</time>
					</trkpt>
					<trkpt lat="48.041210" lon="3.061730">
						<ele>160</ele>
						<time>2020-03-18T20:49:43Z</time>
					</trkpt>
					<trkpt lat="48.041440" lon="3.062380">
						<ele>157</ele>
						<time>2020-03-18T20:50:48Z</time>
					</trkpt>
					<trkpt lat="48.041940" lon="3.062530">
						<ele>154</ele>
						<time>2020-03-18T20:51:57Z</time>
					</trkpt>
					<trkpt lat="48.042070" lon="3.062740">
						<ele>154</ele>
						<time>2020-03-18T20:52:22Z</time>
					</trkpt>
					<trkpt lat="48.042140" lon="3.062580">
						<ele>153</ele>
						<time>2020-03-18T20:52:39Z</time>
					</trkpt>
					<trkpt lat="48.042080" lon="3.062380">
						<ele>153</ele>
						<time>2020-03-18T20:52:59Z</time>
					</trkpt>
					<trkpt lat="48.042090" lon="3.061730">
						<ele>152</ele>
						<time>2020-03-18T20:53:57Z</time>
					</trkpt>
					<trkpt lat="48.042220" lon="3.061890">
						<ele>152</ele>
						<time>2020-03-18T20:54:19Z</time>
					</trkpt>
					<trkpt lat="48.042520" lon="3.061670">
						<ele>149</ele>
						<time>2020-03-18T20:55:04Z</time>
					</trkpt>
					<trkpt lat="48.042270" lon="3.061780">
						<ele>151</ele>
						<time>2020-03-18T20:55:39Z</time>
					</trkpt>
					<trkpt lat="48.042100" lon="3.061720">
						<ele>152</ele>
						<time>2020-03-18T20:56:02Z</time>
					</trkpt>
					<trkpt lat="48.042030" lon="3.061420">
						<ele>153</ele>
						<time>2020-03-18T20:56:30Z</time>
					</trkpt>
					<trkpt lat="48.042080" lon="3.061280">
						<ele>152</ele>
						<time>2020-03-18T20:56:44Z</time>
					</trkpt>
					<trkpt lat="48.042020" lon="3.061150">
						<ele>152</ele>
						<time>2020-03-18T20:56:58Z</time>
					</trkpt>
					<trkpt lat="48.042050" lon="3.061100">
						<ele>152</ele>
						<time>2020-03-18T20:57:04Z</time>
					</trkpt>
					<trkpt lat="48.041970" lon="3.060690">
						<ele>152</ele>
						<time>2020-03-18T20:57:43Z</time>
					</trkpt>
					<trkpt lat="48.042050" lon="3.060820">
						<ele>151</ele>
						<time>2020-03-18T20:57:58Z</time>
					</trkpt>
					<trkpt lat="48.042210" lon="3.060740">
						<ele>150</ele>
						<time>2020-03-18T20:58:21Z</time>
					</trkpt>
					<trkpt lat="48.044060" lon="3.058510">
						<ele>147</ele>
						<time>2020-03-18T21:03:38Z</time>
					</trkpt>
					<trkpt lat="48.044520" lon="3.058150">
						<ele>153</ele>
						<time>2020-03-18T21:04:47Z</time>
					</trkpt>
					<trkpt lat="48.044760" lon="3.058090">
						<ele>156</ele>
						<time>2020-03-18T21:05:20Z</time>
					</trkpt>
					<trkpt lat="48.045720" lon="3.058260">
						<ele>161</ele>
						<time>2020-03-18T21:07:29Z</time>
					</trkpt>
					<trkpt lat="48.046070" lon="3.058060">
						<ele>162</ele>
						<time>2020-03-18T21:08:19Z</time>
					</trkpt>
					<trkpt lat="48.046820" lon="3.056900">
						<ele>165</ele>
						<time>2020-03-18T21:10:43Z</time>
					</trkpt>
					<trkpt lat="48.047110" lon="3.056570">
						<ele>167</ele>
						<time>2020-03-18T21:11:31Z</time>
					</trkpt>
					<trkpt lat="48.047390" lon="3.056440">
						<ele>168</ele>
						<time>2020-03-18T21:12:10Z</time>
					</trkpt>
					<trkpt lat="48.049660" lon="3.056170">
						<ele>172</ele>
						<time>2020-03-18T21:17:14Z</time>
					</trkpt>
					<trkpt lat="48.050910" lon="3.056470">
						<ele>173</ele>
						<time>2020-03-18T21:20:03Z</time>
					</trkpt>
					<trkpt lat="48.052280" lon="3.056620">
						<ele>174</ele>
						<time>2020-03-18T21:23:06Z</time>
					</trkpt>
					<trkpt lat="48.052640" lon="3.056500">
						<ele>174</ele>
						<time>2020-03-18T21:23:56Z</time>
					</trkpt>
					<trkpt lat="48.053690" lon="3.055940">
						<ele>173</ele>
						<time>2020-03-18T21:26:24Z</time>
					</trkpt>
					<trkpt lat="48.058110" lon="3.052940">
						<ele>169</ele>
						<time>2020-03-18T21:37:12Z</time>
					</trkpt>
					<trkpt lat="48.059440" lon="3.052190">
						<ele>168</ele>
						<time>2020-03-18T21:40:22Z</time>
					</trkpt>
					<trkpt lat="48.061450" lon="3.050880">
						<ele>169</ele>
						<time>2020-03-18T21:45:14Z</time>
					</trkpt>
					<trkpt lat="48.062970" lon="3.050260">
						<ele>169</ele>
						<time>2020-03-18T21:48:45Z</time>
					</trkpt>
					<trkpt lat="48.064330" lon="3.049940">
						<ele>168</ele>
						<time>2020-03-18T21:51:48Z</time>
					</trkpt>
					<trkpt lat="48.064810" lon="3.049660">
						<ele>168</ele>
						<time>2020-03-18T21:52:57Z</time>
					</trkpt>
					<trkpt lat="48.065740" lon="3.049310">
						<ele>166</ele>
						<time>2020-03-18T21:55:05Z</time>
					</trkpt>
					<trkpt lat="48.065860" lon="3.049150">
						<ele>166</ele>
						<time>2020-03-18T21:55:26Z</time>
					</trkpt>
					<trkpt lat="48.065920" lon="3.044840">
						<ele>156</ele>
						<time>2020-03-18T22:01:51Z</time>
					</trkpt>
					<trkpt lat="48.065990" lon="3.043950">
						<ele>157</ele>
						<time>2020-03-18T22:03:11Z</time>
					</trkpt>
					<trkpt lat="48.066160" lon="3.043430">
						<ele>158</ele>
						<time>2020-03-18T22:04:02Z</time>
					</trkpt>
					<trkpt lat="48.066510" lon="3.042690">
						<ele>158</ele>
						<time>2020-03-18T22:05:23Z</time>
					</trkpt>
					<trkpt lat="48.066760" lon="3.042000">
						<ele>157</ele>
						<time>2020-03-18T22:06:33Z</time>
					</trkpt>
					<trkpt lat="48.067320" lon="3.039960">
						<ele>155</ele>
						<time>2020-03-18T22:09:50Z</time>
					</trkpt>
					<trkpt lat="48.066990" lon="3.039940">
						<ele>156</ele>
						<time>2020-03-18T22:10:34Z</time>
					</trkpt>
					<trkpt lat="48.067170" lon="3.039920">
						<ele>156</ele>
						<time>2020-03-18T22:10:58Z</time>
					</trkpt>
					<trkpt lat="48.067230" lon="3.039810">
						<ele>155</ele>
						<time>2020-03-18T22:11:11Z</time>
					</trkpt>
					<trkpt lat="48.066220" lon="3.037810">
						<ele>159</ele>
						<time>2020-03-18T22:14:54Z</time>
					</trkpt>
					<trkpt lat="48.064830" lon="3.035340">
						<ele>162</ele>
						<time>2020-03-18T22:19:42Z</time>
					</trkpt>
					<trkpt lat="48.063150" lon="3.032110">
						<ele>155</ele>
						<time>2020-03-18T22:25:47Z</time>
					</trkpt>
					<trkpt lat="48.062980" lon="3.031670">
						<ele>154</ele>
						<time>2020-03-18T22:26:33Z</time>
					</trkpt>
					<trkpt lat="48.062930" lon="3.030330">
						<ele>155</ele>
						<time>2020-03-18T22:28:32Z</time>
					</trkpt>
					<trkpt lat="48.062960" lon="3.029150">
						<ele>156</ele>
						<time>2020-03-18T22:30:18Z</time>
					</trkpt>
					<trkpt lat="48.062860" lon="3.027770">
						<ele>150</ele>
						<time>2020-03-18T22:32:21Z</time>
					</trkpt>
					<trkpt lat="48.062760" lon="3.027370">
						<ele>149</ele>
						<time>2020-03-18T22:33:00Z</time>
					</trkpt>
					<trkpt lat="48.062290" lon="3.026560">
						<ele>148</ele>
						<time>2020-03-18T22:34:35Z</time>
					</trkpt>
					<trkpt lat="48.063180" lon="3.026670">
						<ele>146</ele>
						<time>2020-03-18T22:36:34Z</time>
					</trkpt>
					<trkpt lat="48.064090" lon="3.026680">
						<ele>144</ele>
						<time>2020-03-18T22:38:36Z</time>
					</trkpt>
					<trkpt lat="48.064960" lon="3.026930">
						<ele>140</ele>
						<time>2020-03-18T22:40:34Z</time>
					</trkpt>
					<trkpt lat="48.065160" lon="3.026870">
						<ele>140</ele>
						<time>2020-03-18T22:41:01Z</time>
					</trkpt>
					<trkpt lat="48.065130" lon="3.026460">
						<ele>139</ele>
						<time>2020-03-18T22:41:38Z</time>
					</trkpt>
					<trkpt lat="48.064620" lon="3.024360">
						<ele>140</ele>
						<time>2020-03-18T22:44:57Z</time>
					</trkpt>
					<trkpt lat="48.063930" lon="3.020890">
						<ele>140</ele>
						<time>2020-03-18T22:50:20Z</time>
					</trkpt>
					<trkpt lat="48.063170" lon="3.017540">
						<ele>138</ele>
						<time>2020-03-18T22:55:36Z</time>
					</trkpt>
					<trkpt lat="48.062930" lon="3.016860">
						<ele>137</ele>
						<time>2020-03-18T22:56:44Z</time>
					</trkpt>
					<trkpt lat="48.062730" lon="3.015550">
						<ele>136</ele>
						<time>2020-03-18T22:58:44Z</time>
					</trkpt>
					<trkpt lat="48.062500" lon="3.014710">
						<ele>136</ele>
						<time>2020-03-18T23:00:05Z</time>
					</trkpt>
					<trkpt lat="48.062150" lon="3.012790">
						<ele>138</ele>
						<time>2020-03-18T23:03:03Z</time>
					</trkpt>
					<trkpt lat="48.062280" lon="3.012620">
						<ele>138</ele>
						<time>2020-03-18T23:03:26Z</time>
					</trkpt>
					<trkpt lat="48.062740" lon="3.012360">
						<ele>141</ele>
						<time>2020-03-18T23:04:31Z</time>
					</trkpt>
					<trkpt lat="48.062820" lon="3.012230">
						<ele>142</ele>
						<time>2020-03-18T23:04:47Z</time>
					</trkpt>
					<trkpt lat="48.062880" lon="3.010300">
						<ele>144</ele>
						<time>2020-03-18T23:07:39Z</time>
					</trkpt>
					<trkpt lat="48.063090" lon="3.009650">
						<ele>146</ele>
						<time>2020-03-18T23:08:44Z</time>
					</trkpt>
					<trkpt lat="48.063400" lon="3.009100">
						<ele>149</ele>
						<time>2020-03-18T23:09:48Z</time>
					</trkpt>
					<trkpt lat="48.063450" lon="3.008800">
						<ele>150</ele>
						<time>2020-03-18T23:10:15Z</time>
					</trkpt>
					<trkpt lat="48.063240" lon="3.007390">
						<ele>148</ele>
						<time>2020-03-18T23:12:24Z</time>
					</trkpt>
					<trkpt lat="48.063010" lon="3.007120">
						<ele>147</ele>
						<time>2020-03-18T23:13:03Z</time>
					</trkpt>
					<trkpt lat="48.062420" lon="3.007010">
						<ele>143</ele>
						<time>2020-03-18T23:14:23Z</time>
					</trkpt>
					<trkpt lat="48.061750" lon="3.007200">
						<ele>137</ele>
						<time>2020-03-18T23:15:54Z</time>
					</trkpt>
					<trkpt lat="48.061610" lon="3.007150">
						<ele>136</ele>
						<time>2020-03-18T23:16:13Z</time>
					</trkpt>
					<trkpt lat="48.061380" lon="3.006350">
						<ele>137</ele>
						<time>2020-03-18T23:17:31Z</time>
					</trkpt>
					<trkpt lat="48.060700" lon="3.004760">
						<ele>133</ele>
						<time>2020-03-18T23:20:19Z</time>
					</trkpt>
					<trkpt lat="48.060210" lon="3.003780">
						<ele>132</ele>
						<time>2020-03-18T23:22:08Z</time>
					</trkpt>
					<trkpt lat="48.059950" lon="3.002390">
						<ele>133</ele>
						<time>2020-03-18T23:24:17Z</time>
					</trkpt>
					<trkpt lat="48.059920" lon="3.001920">
						<ele>136</ele>
						<time>2020-03-18T23:24:59Z</time>
					</trkpt>
					<trkpt lat="48.059970" lon="3.001770">
						<ele>137</ele>
						<time>2020-03-18T23:25:14Z</time>
					</trkpt>
					<trkpt lat="48.059850" lon="3.000970">
						<ele>136</ele>
						<time>2020-03-18T23:26:27Z</time>
					</trkpt>
					<trkpt lat="48.059890" lon="3.000780">
						<ele>136</ele>
						<time>2020-03-18T23:26:45Z</time>
					</trkpt>
					<trkpt lat="48.059820" lon="3.000580">
						<ele>135</ele>
						<time>2020-03-18T23:27:05Z</time>
					</trkpt>
					<trkpt lat="48.059830" lon="2.998790">
						<ele>131</ele>
						<time>2020-03-18T23:29:45Z</time>
					</trkpt>
					<trkpt lat="48.059760" lon="2.997100">
						<ele>133</ele>
						<time>2020-03-18T23:32:16Z</time>
					</trkpt>
					<trkpt lat="48.059520" lon="2.996400">
						<ele>133</ele>
						<time>2020-03-18T23:33:26Z</time>
					</trkpt>
					<trkpt lat="48.059490" lon="2.995930">
						<ele>134</ele>
						<time>2020-03-18T23:34:08Z</time>
					</trkpt>
					<trkpt lat="48.059540" lon="2.995910">
						<ele>134</ele>
						<time>2020-03-18T23:34:15Z</time>
					</trkpt>
					<trkpt lat="48.059540" lon="2.995810">
						<ele>134</ele>
						<time>2020-03-18T23:34:24Z</time>
					</trkpt>
					<trkpt lat="48.059860" lon="2.995990">
						<ele>136</ele>
						<time>2020-03-18T23:35:09Z</time>
					</trkpt>
					<trkpt lat="48.060140" lon="2.995970">
						<ele>138</ele>
						<time>2020-03-18T23:35:47Z</time>
					</trkpt>
					<trkpt lat="48.061650" lon="2.995210">
						<ele>149</ele>
						<time>2020-03-18T23:39:19Z</time>
					</trkpt>
					<trkpt lat="48.062090" lon="2.995160">
						<ele>150</ele>
						<time>2020-03-18T23:40:18Z</time>
					</trkpt>
					<trkpt lat="48.062270" lon="2.995060">
						<ele>151</ele>
						<time>2020-03-18T23:40:44Z</time>
					</trkpt>
					<trkpt lat="48.062720" lon="2.994610">
						<ele>150</ele>
						<time>2020-03-18T23:41:56Z</time>
					</trkpt>
					<trkpt lat="48.063380" lon="2.994260">
						<ele>147</ele>
						<time>2020-03-18T23:43:29Z</time>
					</trkpt>
					<trkpt lat="48.063220" lon="2.993680">
						<ele>148</ele>
						<time>2020-03-18T23:44:25Z</time>
					</trkpt>
					<trkpt lat="48.061200" lon="2.987940">
						<ele>151</ele>
						<time>2020-03-18T23:54:04Z</time>
					</trkpt>
					<trkpt lat="48.060510" lon="2.985780">
						<ele>150</ele>
						<time>2020-03-18T23:57:37Z</time>
					</trkpt>
					<trkpt lat="48.060820" lon="2.985750">
						<ele>150</ele>
						<time>2020-03-18T23:58:19Z</time>
					</trkpt>
					<trkpt lat="48.062160" lon="2.985340">
						<ele>152</ele>
						<time>2020-03-19T00:01:21Z</time>
					</trkpt>
					<trkpt lat="48.062620" lon="2.985270">
						<ele>152</ele>
						<time>2020-03-19T00:02:23Z</time>
					</trkpt>
					<trkpt lat="48.062520" lon="2.984110">
						<ele>151</ele>
						<time>2020-03-19T00:04:07Z</time>
					</trkpt>
					<trkpt lat="48.062380" lon="2.981080">
						<ele>146</ele>
						<time>2020-03-19T00:08:38Z</time>
					</trkpt>
					<trkpt lat="48.062440" lon="2.980930">
						<ele>145</ele>
						<time>2020-03-19T00:08:54Z</time>
					</trkpt>
					<trkpt lat="48.062290" lon="2.978500">
						<ele>142</ele>
						<time>2020-03-19T00:12:32Z</time>
					</trkpt>
					<trkpt lat="48.062160" lon="2.977720">
						<ele>142</ele>
						<time>2020-03-19T00:13:43Z</time>
					</trkpt>
					<trkpt lat="48.062180" lon="2.977230">
						<ele>140</ele>
						<time>2020-03-19T00:14:27Z</time>
					</trkpt>
					<trkpt lat="48.062460" lon="2.977100">
						<ele>139</ele>
						<time>2020-03-19T00:15:06Z</time>
					</trkpt>
					<trkpt lat="48.062680" lon="2.976880">
						<ele>139</ele>
						<time>2020-03-19T00:15:41Z</time>
					</trkpt>
					<trkpt lat="48.062750" lon="2.976560">
						<ele>138</ele>
						<time>2020-03-19T00:16:12Z</time>
					</trkpt>
					<trkpt lat="48.062880" lon="2.973650">
						<ele>142</ele>
						<time>2020-03-19T00:20:32Z</time>
					</trkpt>
					<trkpt lat="48.062860" lon="2.972850">
						<ele>145</ele>
						<time>2020-03-19T00:21:43Z</time>
					</trkpt>
					<trkpt lat="48.062620" lon="2.971940">
						<ele>146</ele>
						<time>2020-03-19T00:23:10Z</time>
					</trkpt>
					<trkpt lat="48.062120" lon="2.968570">
						<ele>146</ele>
						<time>2020-03-19T00:28:18Z</time>
					</trkpt>
					<trkpt lat="48.062120" lon="2.967920">
						<ele>147</ele>
						<time>2020-03-19T00:29:16Z</time>
					</trkpt>
					<trkpt lat="48.062370" lon="2.967810">
						<ele>147</ele>
						<time>2020-03-19T00:29:51Z</time>
					</trkpt>
					<trkpt lat="48.062410" lon="2.967580">
						<ele>147</ele>
						<time>2020-03-19T00:30:12Z</time>
					</trkpt>
					<trkpt lat="48.062440" lon="2.960800">
						<ele>144</ele>
						<time>2020-03-19T00:40:17Z</time>
					</trkpt>
					<trkpt lat="48.062400" lon="2.960270">
						<ele>144</ele>
						<time>2020-03-19T00:41:04Z</time>
					</trkpt>
					<trkpt lat="48.062230" lon="2.960110">
						<ele>144</ele>
						<time>2020-03-19T00:41:31Z</time>
					</trkpt>
					<trkpt lat="48.060370" lon="2.959130">
						<ele>144</ele>
						<time>2020-03-19T00:45:54Z</time>
					</trkpt>
					<trkpt lat="48.059190" lon="2.958770">
						<ele>146</ele>
						<time>2020-03-19T00:48:35Z</time>
					</trkpt>
					<trkpt lat="48.057970" lon="2.958690">
						<ele>148</ele>
						<time>2020-03-19T00:51:18Z</time>
					</trkpt>
					<trkpt lat="48.057010" lon="2.958820">
						<ele>149</ele>
						<time>2020-03-19T00:53:27Z</time>
					</trkpt>
					<trkpt lat="48.056880" lon="2.958780">
						<ele>149</ele>
						<time>2020-03-19T00:53:44Z</time>
					</trkpt>
					<trkpt lat="48.056850" lon="2.958450">
						<ele>150</ele>
						<time>2020-03-19T00:54:14Z</time>
					</trkpt>
					<trkpt lat="48.056920" lon="2.957640">
						<ele>150</ele>
						<time>2020-03-19T00:55:27Z</time>
					</trkpt>
					<trkpt lat="48.056870" lon="2.956820">
						<ele>150</ele>
						<time>2020-03-19T00:56:40Z</time>
					</trkpt>
					<trkpt lat="48.057140" lon="2.955060">
						<ele>149</ele>
						<time>2020-03-19T00:59:21Z</time>
					</trkpt>
					<trkpt lat="48.057350" lon="2.954310">
						<ele>149</ele>
						<time>2020-03-19T01:00:34Z</time>
					</trkpt>
					<trkpt lat="48.057280" lon="2.953900">
						<ele>149</ele>
						<time>2020-03-19T01:01:12Z</time>
					</trkpt>
					<trkpt lat="48.057060" lon="2.953630">
						<ele>148</ele>
						<time>2020-03-19T01:01:50Z</time>
					</trkpt>
					<trkpt lat="48.056750" lon="2.953450">
						<ele>148</ele>
						<time>2020-03-19T01:02:34Z</time>
					</trkpt>
					<trkpt lat="48.056150" lon="2.952620">
						<ele>147</ele>
						<time>2020-03-19T01:04:23Z</time>
					</trkpt>
					<trkpt lat="48.055130" lon="2.951870">
						<ele>143</ele>
						<time>2020-03-19T01:06:55Z</time>
					</trkpt>
					<trkpt lat="48.054390" lon="2.951600">
						<ele>139</ele>
						<time>2020-03-19T01:08:36Z</time>
					</trkpt>
					<trkpt lat="48.054090" lon="2.951360">
						<ele>137</ele>
						<time>2020-03-19T01:09:22Z</time>
					</trkpt>
					<trkpt lat="48.053890" lon="2.951330">
						<ele>135</ele>
						<time>2020-03-19T01:09:49Z</time>
					</trkpt>
					<trkpt lat="48.053200" lon="2.951630">
						<ele>129</ele>
						<time>2020-03-19T01:11:24Z</time>
					</trkpt>
					<trkpt lat="48.053100" lon="2.951540">
						<ele>128</ele>
						<time>2020-03-19T01:11:40Z</time>
					</trkpt>
					<trkpt lat="48.053080" lon="2.951270">
						<ele>128</ele>
						<time>2020-03-19T01:12:04Z</time>
					</trkpt>
					<trkpt lat="48.052930" lon="2.950910">
						<ele>126</ele>
						<time>2020-03-19T01:12:42Z</time>
					</trkpt>
					<trkpt lat="48.053620" lon="2.949770">
						<ele>129</ele>
						<time>2020-03-19T01:14:59Z</time>
					</trkpt>
					<trkpt lat="48.054000" lon="2.948450">
						<ele>128</ele>
						<time>2020-03-19T01:17:07Z</time>
					</trkpt>
					<trkpt lat="48.053980" lon="2.948300">
						<ele>127</ele>
						<time>2020-03-19T01:17:21Z</time>
					</trkpt>
					<trkpt lat="48.054040" lon="2.948130">
						<ele>128</ele>
						<time>2020-03-19T01:17:38Z</time>
					</trkpt>
					<trkpt lat="48.054050" lon="2.947810">
						<ele>127</ele>
						<time>2020-03-19T01:18:07Z</time>
					</trkpt>
					<trkpt lat="48.052820" lon="2.946690">
						<ele>114</ele>
						<time>2020-03-19T01:21:19Z</time>
					</trkpt>
					<trkpt lat="48.052800" lon="2.946610">
						<ele>114</ele>
						<time>2020-03-19T01:21:27Z</time>
					</trkpt>
					<trkpt lat="48.052930" lon="2.946080">
						<ele>114</ele>
						<time>2020-03-19T01:22:17Z</time>
					</trkpt>
					<trkpt lat="48.053060" lon="2.945820">
						<ele>114</ele>
						<time>2020-03-19T01:22:46Z</time>
					</trkpt>
					<trkpt lat="48.053150" lon="2.945430">
						<ele>115</ele>
						<time>2020-03-19T01:23:23Z</time>
					</trkpt>
					<trkpt lat="48.053970" lon="2.944550">
						<ele>118</ele>
						<time>2020-03-19T01:25:37Z</time>
					</trkpt>
					<trkpt lat="48.054070" lon="2.944340">
						<ele>118</ele>
						<time>2020-03-19T01:26:00Z</time>
					</trkpt>
					<trkpt lat="48.054120" lon="2.943730">
						<ele>117</ele>
						<time>2020-03-19T01:26:55Z</time>
					</trkpt>
					<trkpt lat="48.053880" lon="2.942850">
						<ele>116</ele>
						<time>2020-03-19T01:28:20Z</time>
					</trkpt>
					<trkpt lat="48.053800" lon="2.942220">
						<ele>115</ele>
						<time>2020-03-19T01:29:17Z</time>
					</trkpt>
					<trkpt lat="48.053890" lon="2.941580">
						<ele>114</ele>
						<time>2020-03-19T01:30:16Z</time>
					</trkpt>
					<trkpt lat="48.054130" lon="2.941070">
						<ele>113</ele>
						<time>2020-03-19T01:31:11Z</time>
					</trkpt>
					<trkpt lat="48.053890" lon="2.939780">
						<ele>113</ele>
						<time>2020-03-19T01:33:11Z</time>
					</trkpt>
					<trkpt lat="48.053840" lon="2.939200">
						<ele>114</ele>
						<time>2020-03-19T01:34:03Z</time>
					</trkpt>
					<trkpt lat="48.053870" lon="2.938290">
						<ele>112</ele>
						<time>2020-03-19T01:35:24Z</time>
					</trkpt>
					<trkpt lat="48.054150" lon="2.936670">
						<ele>113</ele>
						<time>2020-03-19T01:37:53Z</time>
					</trkpt>
					<trkpt lat="48.054100" lon="2.936570">
						<ele>113</ele>
						<time>2020-03-19T01:38:04Z</time>
					</trkpt>
					<trkpt lat="48.053810" lon="2.936480">
						<ele>113</ele>
						<time>2020-03-19T01:38:44Z</time>
					</trkpt>
					<trkpt lat="48.052180" lon="2.936620">
						<ele>112</ele>
						<time>2020-03-19T01:42:22Z</time>
					</trkpt>
					<trkpt lat="48.051440" lon="2.936120">
						<ele>117</ele>
						<time>2020-03-19T01:44:10Z</time>
					</trkpt>
					<trkpt lat="48.050990" lon="2.935990">
						<ele>120</ele>
						<time>2020-03-19T01:45:11Z</time>
					</trkpt>
					<trkpt lat="48.050700" lon="2.936030">
						<ele>121</ele>
						<time>2020-03-19T01:45:50Z</time>
					</trkpt>
					<trkpt lat="48.051060" lon="2.935930">
						<ele>119</ele>
						<time>2020-03-19T01:46:39Z</time>
					</trkpt>
					<trkpt lat="48.051390" lon="2.936050">
						<ele>117</ele>
						<time>2020-03-19T01:47:24Z</time>
					</trkpt>
					<trkpt lat="48.051960" lon="2.936480">
						<ele>113</ele>
						<time>2020-03-19T01:48:50Z</time>
					</trkpt>
					<trkpt lat="48.052740" lon="2.936540">
						<ele>112</ele>
						<time>2020-03-19T01:50:34Z</time>
					</trkpt>
					</trkseg>
				</trk>
			</gpx>